createdAt,value
2023-02-14T00:01:26.862Z,17.35
2023-02-14T00:03:54.540Z,15.90
2023-02-14T00:06:21.248Z,16.00
2023-02-14T00:25:24.395Z,15.45
2023-02-14T00:27:51.206Z,17.70
2023-02-14T00:30:17.898Z,16.02
2023-02-14T00:44:08.157Z,14.65
2023-02-14T00:46:35.336Z,16.55
2023-02-14T00:49:02.198Z,14.93
2023-02-14T00:51:29.175Z,16.90
2023-02-14T00:53:55.935Z,17.60
2023-02-14T00:56:22.573Z,18.02
2023-02-14T00:58:50.382Z,17.83
2023-02-14T01:01:17.655Z,13.30
2023-02-14T01:03:44.467Z,15.75
2023-02-14T01:06:11.188Z,15.45
2023-02-14T01:08:37.913Z,16.42
2023-02-14T01:18:47.235Z,14.48
2023-02-14T01:21:20.639Z,13.73
2023-02-14T01:23:49.217Z,12.15
2023-02-14T01:26:16.647Z,15.32
2023-02-14T01:28:44.172Z,13.68
2023-02-14T01:31:28.063Z,15.73
2023-02-14T01:33:55.496Z,14.45
2023-02-14T02:12:02.610Z,12.52
2023-02-14T02:14:29.373Z,13.07
2023-02-14T02:17:26.914Z,14.25
2023-02-14T05:15:49.115Z,12.70
2023-02-14T05:27:14.754Z,10.73
2023-02-14T05:29:41.468Z,12.27
2023-02-14T05:32:08.538Z,11.73
2023-02-14T05:34:35.285Z,13.02
2023-02-14T05:37:03.037Z,11.90
2023-02-14T06:17:56.595Z,10.88
2023-02-14T06:20:25.151Z,10.55
2023-02-14T06:22:52.606Z,9.45
2023-02-14T06:25:20.295Z,10.00
2023-02-14T06:31:38.242Z,9.63
2023-02-14T06:34:04.981Z,10.38
2023-02-14T06:36:31.665Z,9.45
2023-02-14T06:38:58.322Z,10.45
2023-02-14T06:41:25.085Z,10.48
2023-02-14T06:51:33.896Z,9.85
2023-02-14T06:54:00.527Z,10.02
2023-02-14T06:56:27.164Z,10.65
2023-02-14T06:58:53.902Z,10.25
2023-02-14T08:52:27.231Z,34.45
2023-02-14T09:08:58.186Z,43.30
2023-02-14T09:11:25.393Z,42.08
2023-02-14T09:13:53.248Z,38.88
2023-02-14T09:16:24.365Z,43.40
2023-02-14T09:18:53.154Z,49.20
2023-02-14T09:44:58.028Z,48.22
2023-02-14T09:47:41.937Z,52.97
2023-02-14T09:50:19.013Z,58.50
2023-02-14T09:52:49.142Z,51.17
2023-02-14T09:55:17.780Z,56.25
2023-02-14T09:57:59.665Z,59.00
2023-02-14T10:01:01.510Z,58.70
2023-02-14T10:03:51.568Z,62.38
2023-02-14T10:06:50.243Z,62.78
2023-02-14T10:17:22.458Z,54.42
2023-02-14T10:20:04.149Z,61.15
2023-02-14T10:22:50.060Z,47.35
2023-02-14T10:25:31.157Z,51.35
2023-02-14T10:43:46.379Z,59.28
2023-02-14T10:46:47.982Z,52.60
2023-02-14T10:49:54.828Z,37.10
2023-02-14T11:38:30.653Z,45.03
2023-02-14T11:40:59.029Z,41.60
2023-02-14T11:43:43.636Z,43.10
2023-02-14T11:46:24.767Z,39.45
2023-02-14T11:48:57.565Z,37.50
2023-02-14T16:42:17.752Z,28.02
2023-02-14T16:44:46.552Z,28.70
2023-02-14T16:47:15.166Z,26.42
2023-02-14T16:49:41.988Z,27.25
2023-02-14T16:52:23.782Z,27.85
2023-02-14T17:42:14.162Z,25.35
2023-02-14T17:44:40.853Z,25.08
2023-02-14T17:47:07.588Z,24.15
2023-02-14T17:49:34.250Z,24.88
2023-02-14T18:25:24.151Z,26.42
2023-02-14T18:51:23.539Z,24.30
2023-02-14T18:53:54.614Z,28.17
2023-02-14T18:56:28.687Z,26.35
2023-02-14T18:59:01.439Z,29.50
2023-02-14T19:01:36.736Z,28.63
2023-02-14T19:23:19.510Z,26.60
2023-02-14T19:25:46.190Z,26.50
2023-02-14T19:28:13.528Z,27.17
2023-02-14T19:30:40.221Z,26.90
2023-02-14T19:33:06.968Z,26.48
2023-02-14T19:50:50.158Z,26.35
2023-02-14T19:53:16.874Z,24.00
2023-02-14T19:55:43.689Z,29.10
2023-02-14T19:58:10.407Z,29.48
2023-02-14T20:00:37.932Z,27.08
2023-02-14T20:03:08.598Z,25.58
2023-02-14T20:50:46.348Z,26.35
2023-02-14T20:53:12.981Z,23.73
2023-02-14T20:55:41.751Z,23.52
2023-02-14T20:58:08.453Z,25.63
2023-02-14T21:00:35.268Z,27.77
2023-02-14T21:14:25.205Z,25.23
2023-02-14T21:16:51.899Z,26.42
2023-02-14T21:19:18.530Z,26.73
2023-02-14T21:21:45.787Z,23.77
2023-02-14T21:24:18.082Z,25.52
2023-02-14T21:40:18.163Z,24.67
2023-02-14T21:47:25.733Z,28.50
2023-02-14T21:50:11.138Z,26.15
2023-02-14T21:52:37.776Z,27.95
2023-02-14T22:25:47.557Z,23.20
2023-02-14T22:28:15.266Z,23.88
2023-02-14T22:30:41.894Z,25.65
2023-02-14T22:33:08.638Z,25.17
2023-02-14T22:44:54.100Z,24.90
2023-02-14T22:47:21.041Z,25.58
2023-02-14T22:49:47.716Z,24.88
2023-02-14T22:52:15.459Z,28.08
2023-02-14T23:10:09.292Z,26.88
2023-02-14T23:12:54.724Z,27.30
2023-02-14T23:15:46.597Z,25.65
2023-02-14T23:18:32.067Z,24.48
2023-02-14T23:32:23.350Z,24.92
2023-02-14T23:34:49.943Z,25.13
2023-02-14T23:37:16.695Z,27.42
